Hachinohemaru — JE3089 — position and weather

sailwx.info

Track history (hours):
 
Tides and Currents Weather Stations Pressure Air Temp Water Temp Dewpoint Dewpoint Depression Visibility Wind Speed Wind Dir Waves Ship Positions

Hachinohemaru

Last reported at 2014-Jul-30 04:29 UTC. Time now 2014-Aug-01 01:51 UTC.
Position N 34°23' E 138°25'.

Length 168 m; draft 9.4 m.

Type: Cargo ship. MMSI: 431700018.

Date/timePositionNaut miles runAvg speedWind from/ knotsBaromVisibWave heightAir tempDewpointWater temp
2014-Jul-30 04:29N 34°23' E 138°25'6014.7
2014-Jul-30 00:25N 34°40' E 139°35'1314.1
2014-Jul-29 23:29N 34°45' E 139°49'1313.5
2014-Jul-29 22:33N 34°51' E 140°03'1313.0
2014-Jul-29 21:33N 34°59' E 140°16'1211.6
2014-Jul-29 20:33N 35°05' E 140°28'1110.6
2014-Jul-29 19:33N 35°13' E 140°36'1313.3
2014-Jul-29 18:33N 35°25' E 140°45'1414.2
2014-Jul-29 17:33N 35°36' E 140°54'1413.5
2014-Jul-29 16:33N 35°50' E 140°54'1211.9
2014-Jul-29 15:33N 35°57' E 140°43'2 0.2
2014-Jul-29 04:29N 35°56' E 140°41'  
2014-Jul-26 19:33N 35°60' E 140°44'5 0.4
2014-Jul-26 09:12N 35°56' E 140°41'5 7.2
2014-Jul-26 08:33N 36°00' E 140°43'0 0.3
2014-Jul-26 07:24N 36°00' E 140°43'0 0.0
2014-Jul-26 06:29N 36°00' E 140°43'0 0.0
2014-Jul-26 05:31N 36°00' E 140°43'0 0.0
2014-Jul-26 04:32N 36°00' E 140°43'0 0.0
2014-Jul-26 03:32N 36°00' E 140°43'0 0.0
2014-Jul-26 02:32N 36°00' E 140°43'4511.2
2014-Jul-25 22:33N 36°42' E 141°02'1613.5
2014-Jul-25 21:22N 36°57' E 141°09'9 0.2
2014-Jul-23 21:33N 36°49' E 141°06'1813.9
2014-Jul-23 20:18N 36°32' E 140°59'1314.3
2014-Jul-23 19:23N 36°20' E 140°53'1214.2
2014-Jul-23 18:33N 36°09' E 140°48'1413.7
2014-Jul-23 17:33N 35°56' E 140°42'1 0.9
2014-Jul-23 16:25N 35°56' E 140°41'0 0.0
2014-Jul-23 12:04N 35°56' E 140°41'0 0.0
2014-Jul-23 10:25N 35°56' E 140°41'3 0.5
2014-Jul-23 05:33N 35°58' E 140°42'10 9.4
2014-Jul-23 04:32N 35°54' E 140°53'1513.2
2014-Jul-23 03:25N 35°40' E 140°58'1613.6
2014-Jul-23 02:15N 35°27' E 140°47'1014.1
2014-Jul-23 01:33N 35°18' E 140°40'2214.8
2014-Jul-23 00:05N 35°02' E 140°22'916.6
2014-Jul-22 23:33N 34°58' E 140°13'1616.0
2014-Jul-22 22:33N 34°48' E 139°58'1515.0
2014-Jul-22 21:33N 34°42' E 139°41'  
Track history (hours):
 
Tides and Currents Weather Stations Pressure Air Temp Water Temp Dewpoint Dewpoint Depression Visibility Wind Speed Wind Dir Waves Ship Positions

Hachinohemaru

Last reported at 2014-Jul-30 04:29 UTC. Time now 2014-Aug-01 01:51 UTC.
Position N 34°23' E 138°25'.

Length 168 m; draft 9.4 m.

Type: Cargo ship. MMSI: 431700018.

Date/timePositionNaut miles runAvg speedWind from/ knotsBaromVisibWave heightAir tempDewpointWater temp
2014-Jul-30 04:29N 34°23' E 138°25'6014.7
2014-Jul-30 00:25N 34°40' E 139°35'1314.1
2014-Jul-29 23:29N 34°45' E 139°49'1313.5
2014-Jul-29 22:33N 34°51' E 140°03'1313.0
2014-Jul-29 21:33N 34°59' E 140°16'1211.6
2014-Jul-29 20:33N 35°05' E 140°28'1110.6
2014-Jul-29 19:33N 35°13' E 140°36'1313.3
2014-Jul-29 18:33N 35°25' E 140°45'1414.2
2014-Jul-29 17:33N 35°36' E 140°54'1413.5
2014-Jul-29 16:33N 35°50' E 140°54'1211.9
2014-Jul-29 15:33N 35°57' E 140°43'2 0.2
2014-Jul-29 04:29N 35°56' E 140°41'  
2014-Jul-26 19:33N 35°60' E 140°44'5 0.4
2014-Jul-26 09:12N 35°56' E 140°41'5 7.2
2014-Jul-26 08:33N 36°00' E 140°43'0 0.3
2014-Jul-26 07:24N 36°00' E 140°43'0 0.0
2014-Jul-26 06:29N 36°00' E 140°43'0 0.0
2014-Jul-26 05:31N 36°00' E 140°43'0 0.0
2014-Jul-26 04:32N 36°00' E 140°43'0 0.0
2014-Jul-26 03:32N 36°00' E 140°43'0 0.0
2014-Jul-26 02:32N 36°00' E 140°43'4511.2
2014-Jul-25 22:33N 36°42' E 141°02'1613.5
2014-Jul-25 21:22N 36°57' E 141°09'9 0.2
2014-Jul-23 21:33N 36°49' E 141°06'1813.9
2014-Jul-23 20:18N 36°32' E 140°59'1314.3
2014-Jul-23 19:23N 36°20' E 140°53'1214.2
2014-Jul-23 18:33N 36°09' E 140°48'1413.7
2014-Jul-23 17:33N 35°56' E 140°42'1 0.9
2014-Jul-23 16:25N 35°56' E 140°41'0 0.0
2014-Jul-23 12:04N 35°56' E 140°41'0 0.0
2014-Jul-23 10:25N 35°56' E 140°41'3 0.5
2014-Jul-23 05:33N 35°58' E 140°42'10 9.4
2014-Jul-23 04:32N 35°54' E 140°53'1513.2
2014-Jul-23 03:25N 35°40' E 140°58'1613.6
2014-Jul-23 02:15N 35°27' E 140°47'1014.1
2014-Jul-23 01:33N 35°18' E 140°40'2214.8
2014-Jul-23 00:05N 35°02' E 140°22'916.6
2014-Jul-22 23:33N 34°58' E 140°13'1616.0
2014-Jul-22 22:33N 34°48' E 139°58'1515.0
2014-Jul-22 21:33N 34°42' E 139°41'  

Dump ship's entire track history